sensor_id;sensor_type;location;lat;lon;timestamp;temperature;humidity
46816;DHT22;32787;53.316;8.670;2023-04-05T00:00:56;-3276.00;89.10
46816;DHT22;32787;53.316;8.670;2023-04-05T00:03:21;-3275.90;88.80
46816;DHT22;32787;53.316;8.670;2023-04-05T00:05:47;-3275.80;88.50
46816;DHT22;32787;53.316;8.670;2023-04-05T00:08:14;-3275.70;88.90
46816;DHT22;32787;53.316;8.670;2023-04-05T00:10:48;-3275.60;89.30
46816;DHT22;32787;53.316;8.670;2023-04-05T00:13:14;-3275.40;89.50
46816;DHT22;32787;53.316;8.670;2023-04-05T00:15:40;-3275.60;89.70
46816;DHT22;32787;53.316;8.670;2023-04-05T00:18:06;-3275.60;89.60
46816;DHT22;32787;53.316;8.670;2023-04-05T00:20:31;-3275.70;89.20
46816;DHT22;32787;53.316;8.670;2023-04-05T00:22:58;-3275.50;89.40
46816;DHT22;32787;53.316;8.670;2023-04-05T00:25:24;-3275.40;89.50
46816;DHT22;32787;53.316;8.670;2023-04-05T00:27:50;-3275.50;89.70
46816;DHT22;32787;53.316;8.670;2023-04-05T00:30:16;-3275.40;89.70
46816;DHT22;32787;53.316;8.670;2023-04-05T00:32:48;-3275.30;89.80
46816;DHT22;32787;53.316;8.670;2023-04-05T00:35:14;-3275.30;89.90
46816;DHT22;32787;53.316;8.670;2023-04-05T00:37:40;-3275.20;90.00
46816;DHT22;32787;53.316;8.670;2023-04-05T00:40:07;-3275.30;90.10
46816;DHT22;32787;53.316;8.670;2023-04-05T00:42:33;-3275.30;90.00
46816;DHT22;32787;53.316;8.670;2023-04-05T00:44:59;-3275.40;90.10
46816;DHT22;32787;53.316;8.670;2023-04-05T00:47:24;-3275.30;90.00
46816;DHT22;32787;53.316;8.670;2023-04-05T00:49:50;-3275.30;90.10
46816;DHT22;32787;53.316;8.670;2023-04-05T00:52:17;-3275.40;90.10
46816;DHT22;32787;53.316;8.670;2023-04-05T00:54:44;-3275.30;90.00
46816;DHT22;32787;53.316;8.670;2023-04-05T00:57:10;-3275.20;90.20
46816;DHT22;32787;53.316;8.670;2023-04-05T00:59:35;-3275.10;90.50
46816;DHT22;32787;53.316;8.670;2023-04-05T01:02:35;-3275.10;90.60
46816;DHT22;32787;53.316;8.670;2023-04-05T01:05:11;-3275.30;90.70
46816;DHT22;32787;53.316;8.670;2023-04-05T01:07:52;-3275.40;90.50
46816;DHT22;32787;53.316;8.670;2023-04-05T01:10:18;-3275.20;90.60
46816;DHT22;32787;53.316;8.670;2023-04-05T01:12:46;-3275.30;90.50
46816;DHT22;32787;53.316;8.670;2023-04-05T01:15:12;-3275.20;90.40
46816;DHT22;32787;53.316;8.670;2023-04-05T01:17:38;-3275.10;90.60
46816;DHT22;32787;53.316;8.670;2023-04-05T01:20:08;-3275.10;90.60
46816;DHT22;32787;53.316;8.670;2023-04-05T01:30:38;-3275.00;90.70
46816;DHT22;32787;53.316;8.670;2023-04-05T01:33:29;-3275.20;90.60
46816;DHT22;32787;53.316;8.670;2023-04-05T01:36:20;-3275.20;90.60
46816;DHT22;32787;53.316;8.670;2023-04-05T01:38:49;-3275.10;90.70
46816;DHT22;32787;53.316;8.670;2023-04-05T01:41:15;-3275.30;90.70
46816;DHT22;32787;53.316;8.670;2023-04-05T01:43:41;-3275.40;90.70
46816;DHT22;32787;53.316;8.670;2023-04-05T01:46:06;-3275.50;90.60
46816;DHT22;32787;53.316;8.670;2023-04-05T01:48:32;-3275.40;90.40
46816;DHT22;32787;53.316;8.670;2023-04-05T01:50:57;-3275.60;90.40
46816;DHT22;32787;53.316;8.670;2023-04-05T01:53:24;-3275.70;90.00
46816;DHT22;32787;53.316;8.670;2023-04-05T01:55:50;-3275.60;89.90
46816;DHT22;32787;53.316;8.670;2023-04-05T01:58:16;-3275.60;89.80
46816;DHT22;32787;53.316;8.670;2023-04-05T02:00:41;-3275.40;89.70
46816;DHT22;32787;53.316;8.670;2023-04-05T02:03:07;-3275.50;90.00
46816;DHT22;32787;53.316;8.670;2023-04-05T02:05:32;-3275.60;89.80
46816;DHT22;32787;53.316;8.670;2023-04-05T02:07:58;-3275.20;89.30
46816;DHT22;32787;53.316;8.670;2023-04-05T02:10:24;-3275.00;89.60
46816;DHT22;32787;53.316;8.670;2023-04-05T02:12:49;-3274.90;89.40
46816;DHT22;32787;53.316;8.670;2023-04-05T02:15:15;-3274.80;89.70
46816;DHT22;32787;53.316;8.670;2023-04-05T02:17:41;-3274.70;89.90
46816;DHT22;32787;53.316;8.670;2023-04-05T02:20:11;-3274.50;90.10
46816;DHT22;32787;53.316;8.670;2023-04-05T02:22:39;-3274.50;90.30
46816;DHT22;32787;53.316;8.670;2023-04-05T02:25:06;-3274.40;90.50
46816;DHT22;32787;53.316;8.670;2023-04-05T02:27:35;-3274.60;90.70
46816;DHT22;32787;53.316;8.670;2023-04-05T02:30:01;-3274.60;90.60
46816;DHT22;32787;53.316;8.670;2023-04-05T02:32:27;-3274.80;90.60
46816;DHT22;32787;53.316;8.670;2023-04-05T02:34:52;-3274.70;90.40
46816;DHT22;32787;53.316;8.670;2023-04-05T02:37:19;-3274.70;90.40
46816;DHT22;32787;53.316;8.670;2023-04-05T02:39:45;-3274.60;90.50
46816;DHT22;32787;53.316;8.670;2023-04-05T02:42:10;-3274.70;90.60
46816;DHT22;32787;53.316;8.670;2023-04-05T02:44:36;-3274.70;90.40
46816;DHT22;32787;53.316;8.670;2023-04-05T02:47:02;-3274.70;90.30
46816;DHT22;32787;53.316;8.670;2023-04-05T02:49:28;-3274.60;90.40
46816;DHT22;32787;53.316;8.670;2023-04-05T02:51:53;-3274.60;90.60
46816;DHT22;32787;53.316;8.670;2023-04-05T02:54:20;-3274.60;90.60
46816;DHT22;32787;53.316;8.670;2023-04-05T02:56:46;-3274.50;90.60
46816;DHT22;32787;53.316;8.670;2023-04-05T02:59:12;-3274.40;90.60
46816;DHT22;32787;53.316;8.670;2023-04-05T03:01:38;-3274.30;90.80
46816;DHT22;32787;53.316;8.670;2023-04-05T03:04:09;-3274.40;90.90
46816;DHT22;32787;53.316;8.670;2023-04-05T03:06:36;-3274.50;90.80
46816;DHT22;32787;53.316;8.670;2023-04-05T03:09:03;-3274.40;90.70
46816;DHT22;32787;53.316;8.670;2023-04-05T03:11:29;-3274.30;90.80
46816;DHT22;32787;53.316;8.670;2023-04-05T03:13:55;-3274.30;90.80
46816;DHT22;32787;53.316;8.670;2023-04-05T03:16:20;-3274.30;91.00
46816;DHT22;32787;53.316;8.670;2023-04-05T03:18:48;-3274.30;91.00
46816;DHT22;32787;53.316;8.670;2023-04-05T03:21:13;-3274.30;91.00
46816;DHT22;32787;53.316;8.670;2023-04-05T03:23:42;-3274.40;90.90
46816;DHT22;32787;53.316;8.670;2023-04-05T03:26:11;-3274.40;90.90
46816;DHT22;32787;53.316;8.670;2023-04-05T03:28:37;-3274.40;90.80
46816;DHT22;32787;53.316;8.670;2023-04-05T03:31:03;-3274.30;90.80
46816;DHT22;32787;53.316;8.670;2023-04-05T03:33:28;-3274.30;90.90
46816;DHT22;32787;53.316;8.670;2023-04-05T03:35:54;-3274.30;90.90
46816;DHT22;32787;53.316;8.670;2023-04-05T03:38:19;-3274.30;91.00
46816;DHT22;32787;53.316;8.670;2023-04-05T03:40:45;-3274.20;91.00
46816;DHT22;32787;53.316;8.670;2023-04-05T03:43:11;-3274.20;91.00
46816;DHT22;32787;53.316;8.670;2023-04-05T03:45:37;-3274.20;91.10
46816;DHT22;32787;53.316;8.670;2023-04-05T03:48:03;-3274.10;91.20
46816;DHT22;32787;53.316;8.670;2023-04-05T03:50:28;-3274.10;91.30
46816;DHT22;32787;53.316;8.670;2023-04-05T03:52:54;-3274.10;91.30
46816;DHT22;32787;53.316;8.670;2023-04-05T03:55:20;-3274.00;91.30
46816;DHT22;32787;53.316;8.670;2023-04-05T03:57:46;-3274.00;91.30
46816;DHT22;32787;53.316;8.670;2023-04-05T04:00:12;-3274.00;91.40
46816;DHT22;32787;53.316;8.670;2023-04-05T04:02:46;-3274.10;91.40
46816;DHT22;32787;53.316;8.670;2023-04-05T04:05:14;-3273.90;91.40
46816;DHT22;32787;53.316;8.670;2023-04-05T04:07:40;-3273.90;91.40
46816;DHT22;32787;53.316;8.670;2023-04-05T04:10:07;-3273.90;91.40
46816;DHT22;32787;53.316;8.670;2023-04-05T04:12:33;-3273.90;91.40
46816;DHT22;32787;53.316;8.670;2023-04-05T04:14:59;-3273.80;91.50
46816;DHT22;32787;53.316;8.670;2023-04-05T04:17:30;-3273.80;91.50
46816;DHT22;32787;53.316;8.670;2023-04-05T04:19:57;-3273.90;91.60
46816;DHT22;32787;53.316;8.670;2023-04-05T04:22:24;-3273.90;91.60
46816;DHT22;32787;53.316;8.670;2023-04-05T04:24:58;-3273.90;91.60
46816;DHT22;32787;53.316;8.670;2023-04-05T04:27:31;-3273.80;91.60
46816;DHT22;32787;53.316;8.670;2023-04-05T04:29:59;-3273.90;91.70
46816;DHT22;32787;53.316;8.670;2023-04-05T04:32:29;-3273.90;91.60
46816;DHT22;32787;53.316;8.670;2023-04-05T04:35:14;-3273.80;91.50
46816;DHT22;32787;53.316;8.670;2023-04-05T04:37:46;-3273.80;91.60
46816;DHT22;32787;53.316;8.670;2023-04-05T04:40:15;-3273.70;91.60
46816;DHT22;32787;53.316;8.670;2023-04-05T04:42:42;-3273.60;91.60
46816;DHT22;32787;53.316;8.670;2023-04-05T04:45:14;-3273.60;91.70
46816;DHT22;32787;53.316;8.670;2023-04-05T04:47:44;-3273.60;91.80
46816;DHT22;32787;53.316;8.670;2023-04-05T04:50:10;-3273.70;91.90
46816;DHT22;32787;53.316;8.670;2023-04-05T04:52:37;-3273.70;91.90
46816;DHT22;32787;53.316;8.670;2023-04-05T04:55:03;-3273.60;91.90
46816;DHT22;32787;53.316;8.670;2023-04-05T04:57:30;-3273.60;91.90
46816;DHT22;32787;53.316;8.670;2023-04-05T04:59:56;-3273.60;92.00
46816;DHT22;32787;53.316;8.670;2023-04-05T05:02:26;-3273.70;92.00
46816;DHT22;32787;53.316;8.670;2023-04-05T05:04:51;-3273.70;92.00
46816;DHT22;32787;53.316;8.670;2023-04-05T05:07:18;-3273.80;92.00
46816;DHT22;32787;53.316;8.670;2023-04-05T05:09:44;-3273.80;91.90
46816;DHT22;32787;53.316;8.670;2023-04-05T05:12:10;-3273.90;91.90
46816;DHT22;32787;53.316;8.670;2023-04-05T05:14:36;-3273.90;91.90
46816;DHT22;32787;53.316;8.670;2023-04-05T05:17:02;-3274.00;92.00
46816;DHT22;32787;53.316;8.670;2023-04-05T05:19:29;-3274.00;91.90
46816;DHT22;32787;53.316;8.670;2023-04-05T05:21:56;-3273.90;91.80
46816;DHT22;32787;53.316;8.670;2023-04-05T05:24:21;-3274.10;91.80
46816;DHT22;32787;53.316;8.670;2023-04-05T05:26:47;-3274.00;91.70
46816;DHT22;32787;53.316;8.670;2023-04-05T05:29:13;-3274.10;91.80
46816;DHT22;32787;53.316;8.670;2023-04-05T05:31:38;-3274.10;91.90
46816;DHT22;32787;53.316;8.670;2023-04-05T05:34:04;-3274.10;91.90
46816;DHT22;32787;53.316;8.670;2023-04-05T05:36:31;-3274.20;91.90
46816;DHT22;32787;53.316;8.670;2023-04-05T05:38:57;-3274.30;91.90
46816;DHT22;32787;53.316;8.670;2023-04-05T05:41:22;-3274.50;92.10
46816;DHT22;32787;53.316;8.670;2023-04-05T05:43:48;-3274.60;92.00
46816;DHT22;32787;53.316;8.670;2023-04-05T05:46:14;-3274.70;91.90
46816;DHT22;32787;53.316;8.670;2023-04-05T05:48:40;-3274.80;92.00
46816;DHT22;32787;53.316;8.670;2023-04-05T05:51:06;-3275.00;92.00
46816;DHT22;32787;53.316;8.670;2023-04-05T05:53:37;-3275.10;92.00
46816;DHT22;32787;53.316;8.670;2023-04-05T05:56:03;-3275.40;91.80
46816;DHT22;32787;53.316;8.670;2023-04-05T05:58:29;-3275.40;91.40
46816;DHT22;32787;53.316;8.670;2023-04-05T06:00:55;-3275.80;91.30
46816;DHT22;32787;53.316;8.670;2023-04-05T06:03:24;-3275.90;90.80
46816;DHT22;32787;53.316;8.670;2023-04-05T06:05:55;-3276.00;90.40
46816;DHT22;32787;53.316;8.670;2023-04-05T06:08:24;-3275.90;89.90
46816;DHT22;32787;53.316;8.670;2023-04-05T06:10:52;-3275.80;89.80
46816;DHT22;32787;53.316;8.670;2023-04-05T06:13:18;-3275.70;89.90
46816;DHT22;32787;53.316;8.670;2023-04-05T06:15:44;-3275.70;90.20
46816;DHT22;32787;53.316;8.670;2023-04-05T06:18:10;-3275.70;90.50
46816;DHT22;32787;53.316;8.670;2023-04-05T06:20:35;-3275.70;90.70
46816;DHT22;32787;53.316;8.670;2023-04-05T06:23:09;-3275.80;91.00
46816;DHT22;32787;53.316;8.670;2023-04-05T06:25:35;-3275.90;91.00
46816;DHT22;32787;53.316;8.670;2023-04-05T06:28:02;-3275.90;91.00
46816;DHT22;32787;53.316;8.670;2023-04-05T06:30:28;-3276.00;90.90
46816;DHT22;32787;53.316;8.670;2023-04-05T06:32:54;-3276.10;90.70
46816;DHT22;32787;53.316;8.670;2023-04-05T06:35:20;-3276.30;90.40
46816;DHT22;32787;53.316;8.670;2023-04-05T06:37:46;-3276.50;90.00
46816;DHT22;32787;53.316;8.670;2023-04-05T06:40:13;0.00;89.50
46816;DHT22;32787;53.316;8.670;2023-04-05T06:42:39;0.10;88.80
46816;DHT22;32787;53.316;8.670;2023-04-05T06:45:04;0.30;88.00
46816;DHT22;32787;53.316;8.670;2023-04-05T06:47:37;0.40;87.40
46816;DHT22;32787;53.316;8.670;2023-04-05T06:50:07;0.60;86.60
46816;DHT22;32787;53.316;8.670;2023-04-05T06:52:33;0.70;86.30
46816;DHT22;32787;53.316;8.670;2023-04-05T06:54:59;0.90;85.70
46816;DHT22;32787;53.316;8.670;2023-04-05T06:57:25;1.10;85.00
46816;DHT22;32787;53.316;8.670;2023-04-05T06:59:52;1.20;83.70
46816;DHT22;32787;53.316;8.670;2023-04-05T07:02:18;1.40;82.20
46816;DHT22;32787;53.316;8.670;2023-04-05T07:04:44;1.60;82.10
46816;DHT22;32787;53.316;8.670;2023-04-05T07:07:11;1.70;81.30
46816;DHT22;32787;53.316;8.670;2023-04-05T07:09:38;1.80;80.00
46816;DHT22;32787;53.316;8.670;2023-04-05T07:12:05;1.90;78.80
46816;DHT22;32787;53.316;8.670;2023-04-05T07:14:36;2.10;79.10
46816;DHT22;32787;53.316;8.670;2023-04-05T07:17:04;2.30;79.00
46816;DHT22;32787;53.316;8.670;2023-04-05T07:19:30;2.50;77.70
46816;DHT22;32787;53.316;8.670;2023-04-05T07:21:56;2.60;75.90
46816;DHT22;32787;53.316;8.670;2023-04-05T07:24:22;2.90;73.00
46816;DHT22;32787;53.316;8.670;2023-04-05T07:26:47;3.20;72.20
46816;DHT22;32787;53.316;8.670;2023-04-05T07:29:13;3.50;72.10
46816;DHT22;32787;53.316;8.670;2023-04-05T07:31:39;3.40;71.10
46816;DHT22;32787;53.316;8.670;2023-04-05T07:34:05;3.40;71.60
46816;DHT22;32787;53.316;8.670;2023-04-05T07:36:31;3.90;69.10
46816;DHT22;32787;53.316;8.670;2023-04-05T07:38:57;4.10;67.40
46816;DHT22;32787;53.316;8.670;2023-04-05T07:41:27;4.30;66.70
46816;DHT22;32787;53.316;8.670;2023-04-05T07:43:59;4.50;65.80
46816;DHT22;32787;53.316;8.670;2023-04-05T07:46:25;4.90;64.80
46816;DHT22;32787;53.316;8.670;2023-04-05T07:48:52;5.10;63.00
46816;DHT22;32787;53.316;8.670;2023-04-05T07:51:18;5.20;61.90
46816;DHT22;32787;53.316;8.670;2023-04-05T07:53:43;5.60;62.60
46816;DHT22;32787;53.316;8.670;2023-04-05T07:56:10;5.90;59.50
46816;DHT22;32787;53.316;8.670;2023-04-05T07:58:37;6.30;58.10
46816;DHT22;32787;53.316;8.670;2023-04-05T08:01:06;6.60;58.70
46816;DHT22;32787;53.316;8.670;2023-04-05T08:03:32;7.30;57.50
46816;DHT22;32787;53.316;8.670;2023-04-05T08:06:12;7.20;56.10
46816;DHT22;32787;53.316;8.670;2023-04-05T08:08:38;7.00;56.90
46816;DHT22;32787;53.316;8.670;2023-04-05T08:11:04;6.40;52.50
46816;DHT22;32787;53.316;8.670;2023-04-05T08:13:30;6.20;55.50
46816;DHT22;32787;53.316;8.670;2023-04-05T08:15:58;6.10;53.50
46816;DHT22;32787;53.316;8.670;2023-04-05T08:18:25;5.90;56.70
46816;DHT22;32787;53.316;8.670;2023-04-05T08:20:52;5.90;57.80
46816;DHT22;32787;53.316;8.670;2023-04-05T08:23:19;6.30;54.00
46816;DHT22;32787;53.316;8.670;2023-04-05T08:25:44;6.40;51.20
46816;DHT22;32787;53.316;8.670;2023-04-05T08:28:10;6.40;51.60
46816;DHT22;32787;53.316;8.670;2023-04-05T08:30:36;6.30;52.10
46816;DHT22;32787;53.316;8.670;2023-04-05T08:33:03;6.40;52.40
46816;DHT22;32787;53.316;8.670;2023-04-05T08:35:29;6.60;51.90
46816;DHT22;32787;53.316;8.670;2023-04-05T08:37:55;7.00;51.20
46816;DHT22;32787;53.316;8.670;2023-04-05T08:40:20;7.20;52.40
46816;DHT22;32787;53.316;8.670;2023-04-05T08:42:56;7.10;51.70
46816;DHT22;32787;53.316;8.670;2023-04-05T08:45:28;7.20;50.50
46816;DHT22;32787;53.316;8.670;2023-04-05T08:47:54;7.30;49.30
46816;DHT22;32787;53.316;8.670;2023-04-05T08:50:20;7.10;49.80
46816;DHT22;32787;53.316;8.670;2023-04-05T08:52:46;7.10;47.20
46816;DHT22;32787;53.316;8.670;2023-04-05T08:55:15;7.10;47.80
46816;DHT22;32787;53.316;8.670;2023-04-05T08:57:44;7.20;48.70
46816;DHT22;32787;53.316;8.670;2023-04-05T09:00:12;7.20;49.50
46816;DHT22;32787;53.316;8.670;2023-04-05T09:02:43;7.40;46.90
46816;DHT22;32787;53.316;8.670;2023-04-05T09:05:09;7.60;46.70
46816;DHT22;32787;53.316;8.670;2023-04-05T09:07:36;7.60;43.40
46816;DHT22;32787;53.316;8.670;2023-04-05T09:10:04;7.50;46.00
46816;DHT22;32787;53.316;8.670;2023-04-05T09:12:31;7.30;46.30
46816;DHT22;32787;53.316;8.670;2023-04-05T09:14:59;7.40;45.60
46816;DHT22;32787;53.316;8.670;2023-04-05T09:17:27;7.60;44.50
46816;DHT22;32787;53.316;8.670;2023-04-05T09:19:53;8.10;46.40
46816;DHT22;32787;53.316;8.670;2023-04-05T09:22:21;8.00;43.70
46816;DHT22;32787;53.316;8.670;2023-04-05T09:24:48;7.60;45.00
46816;DHT22;32787;53.316;8.670;2023-04-05T09:27:15;7.40;45.80
46816;DHT22;32787;53.316;8.670;2023-04-05T09:29:50;7.50;45.80
46816;DHT22;32787;53.316;8.670;2023-04-05T09:32:16;7.50;47.40
46816;DHT22;32787;53.316;8.670;2023-04-05T09:34:44;7.80;46.20
46816;DHT22;32787;53.316;8.670;2023-04-05T09:37:15;7.90;44.40
46816;DHT22;32787;53.316;8.670;2023-04-05T09:39:41;7.70;43.10
46816;DHT22;32787;53.316;8.670;2023-04-05T09:42:09;7.40;42.10
46816;DHT22;32787;53.316;8.670;2023-04-05T09:44:59;7.50;44.40
46816;DHT22;32787;53.316;8.670;2023-04-05T09:47:31;7.60;46.40
46816;DHT22;32787;53.316;8.670;2023-04-05T09:52:40;7.90;43.70
46816;DHT22;32787;53.316;8.670;2023-04-05T09:55:06;7.80;44.10
46816;DHT22;32787;53.316;8.670;2023-04-05T09:57:37;8.20;44.40
46816;DHT22;32787;53.316;8.670;2023-04-05T10:00:04;8.30;43.50
46816;DHT22;32787;53.316;8.670;2023-04-05T10:02:38;8.30;44.10
46816;DHT22;32787;53.316;8.670;2023-04-05T10:05:11;8.60;44.10
46816;DHT22;32787;53.316;8.670;2023-04-05T10:07:47;8.50;42.60
46816;DHT22;32787;53.316;8.670;2023-04-05T10:10:13;8.30;41.90
46816;DHT22;32787;53.316;8.670;2023-04-05T10:12:40;8.20;43.60
46816;DHT22;32787;53.316;8.670;2023-04-05T10:15:10;8.20;42.70
46816;DHT22;32787;53.316;8.670;2023-04-05T10:17:52;8.20;44.10
46816;DHT22;32787;53.316;8.670;2023-04-05T10:20:23;8.20;43.30
46816;DHT22;32787;53.316;8.670;2023-04-05T10:23:10;8.20;39.20
46816;DHT22;32787;53.316;8.670;2023-04-05T10:28:30;8.20;41.10
46816;DHT22;32787;53.316;8.670;2023-04-05T10:33:43;8.10;41.00
46816;DHT22;32787;53.316;8.670;2023-04-05T10:39:18;8.10;40.50
46816;DHT22;32787;53.316;8.670;2023-04-05T10:41:52;7.90;41.10
46816;DHT22;32787;53.316;8.670;2023-04-05T10:44:18;8.10;43.30
46816;DHT22;32787;53.316;8.670;2023-04-05T10:46:45;8.10;40.30
46816;DHT22;32787;53.316;8.670;2023-04-05T10:49:32;8.20;41.00
46816;DHT22;32787;53.316;8.670;2023-04-05T10:52:02;8.20;41.50
46816;DHT22;32787;53.316;8.670;2023-04-05T10:54:30;8.30;40.80
46816;DHT22;32787;53.316;8.670;2023-04-05T10:56:57;8.40;41.80
46816;DHT22;32787;53.316;8.670;2023-04-05T10:59:24;8.70;40.90
46816;DHT22;32787;53.316;8.670;2023-04-05T11:01:51;8.70;40.80
46816;DHT22;32787;53.316;8.670;2023-04-05T11:04:17;8.80;38.90
46816;DHT22;32787;53.316;8.670;2023-04-05T11:06:43;8.80;41.50
46816;DHT22;32787;53.316;8.670;2023-04-05T11:09:17;8.80;40.10
46816;DHT22;32787;53.316;8.670;2023-04-05T11:11:45;9.10;41.50
46816;DHT22;32787;53.316;8.670;2023-04-05T11:16:54;10.50;39.80
46816;DHT22;32787;53.316;8.670;2023-04-05T11:22:13;11.30;36.20
46816;DHT22;32787;53.316;8.670;2023-04-05T11:25:02;11.00;36.20
46816;DHT22;32787;53.316;8.670;2023-04-05T11:27:33;10.80;35.30
46816;DHT22;32787;53.316;8.670;2023-04-05T11:30:03;10.60;36.50
46816;DHT22;32787;53.316;8.670;2023-04-05T11:32:43;10.10;38.30
46816;DHT22;32787;53.316;8.670;2023-04-05T11:35:16;10.20;40.00
46816;DHT22;32787;53.316;8.670;2023-04-05T11:40:24;9.60;39.50
46816;DHT22;32787;53.316;8.670;2023-04-05T11:45:25;9.50;39.30
46816;DHT22;32787;53.316;8.670;2023-04-05T11:47:51;9.30;39.40
46816;DHT22;32787;53.316;8.670;2023-04-05T11:50:17;9.30;39.20
46816;DHT22;32787;53.316;8.670;2023-04-05T11:52:43;9.40;39.70
46816;DHT22;32787;53.316;8.670;2023-04-05T11:55:08;9.60;39.10
46816;DHT22;32787;53.316;8.670;2023-04-05T11:57:36;9.60;39.20
46816;DHT22;32787;53.316;8.670;2023-04-05T12:00:02;9.70;39.30
46816;DHT22;32787;53.316;8.670;2023-04-05T12:02:33;9.80;40.70
46816;DHT22;32787;53.316;8.670;2023-04-05T12:04:59;10.10;39.30
46816;DHT22;32787;53.316;8.670;2023-04-05T12:07:27;10.10;38.80
46816;DHT22;32787;53.316;8.670;2023-04-05T12:10:02;9.80;38.10
46816;DHT22;32787;53.316;8.670;2023-04-05T12:12:33;9.90;39.70
46816;DHT22;32787;53.316;8.670;2023-04-05T12:15:00;10.00;40.60
46816;DHT22;32787;53.316;8.670;2023-04-05T12:20:14;10.90;41.10
46816;DHT22;32787;53.316;8.670;2023-04-05T12:22:42;11.20;41.20
46816;DHT22;32787;53.316;8.670;2023-04-05T12:25:08;11.40;39.20
46816;DHT22;32787;53.316;8.670;2023-04-05T12:27:34;11.00;38.90
46816;DHT22;32787;53.316;8.670;2023-04-05T12:32:49;11.00;38.00
46816;DHT22;32787;53.316;8.670;2023-04-05T12:37:42;11.10;38.90
46816;DHT22;32787;53.316;8.670;2023-04-05T12:40:09;11.10;39.60
46816;DHT22;32787;53.316;8.670;2023-04-05T12:42:36;11.10;39.20
46816;DHT22;32787;53.316;8.670;2023-04-05T12:45:08;11.40;39.20
46816;DHT22;32787;53.316;8.670;2023-04-05T12:47:35;12.10;39.00
46816;DHT22;32787;53.316;8.670;2023-04-05T12:50:15;11.70;34.70
46816;DHT22;32787;53.316;8.670;2023-04-05T12:52:54;11.50;38.40
46816;DHT22;32787;53.316;8.670;2023-04-05T12:55:20;11.20;38.50
46816;DHT22;32787;53.316;8.670;2023-04-05T12:57:59;11.10;36.60
46816;DHT22;32787;53.316;8.670;2023-04-05T13:00:29;10.80;36.10
46816;DHT22;32787;53.316;8.670;2023-04-05T13:02:57;10.60;35.90
46816;DHT22;32787;53.316;8.670;2023-04-05T13:05:25;10.70;37.20
46816;DHT22;32787;53.316;8.670;2023-04-05T13:07:51;11.10;36.30
46816;DHT22;32787;53.316;8.670;2023-04-05T13:10:18;11.20;36.40
46816;DHT22;32787;53.316;8.670;2023-04-05T13:12:44;11.10;34.70
46816;DHT22;32787;53.316;8.670;2023-04-05T13:15:10;10.80;36.90
46816;DHT22;32787;53.316;8.670;2023-04-05T13:17:36;10.90;36.80
46816;DHT22;32787;53.316;8.670;2023-04-05T13:20:02;11.00;36.10
46816;DHT22;32787;53.316;8.670;2023-04-05T13:22:28;10.70;37.50
46816;DHT22;32787;53.316;8.670;2023-04-05T13:24:54;10.40;40.20
46816;DHT22;32787;53.316;8.670;2023-04-05T13:27:19;10.50;39.60
46816;DHT22;32787;53.316;8.670;2023-04-05T13:29:48;10.20;40.00
46816;DHT22;32787;53.316;8.670;2023-04-05T13:32:13;10.40;39.50
46816;DHT22;32787;53.316;8.670;2023-04-05T13:34:39;10.50;38.80
46816;DHT22;32787;53.316;8.670;2023-04-05T13:37:05;10.50;40.00
46816;DHT22;32787;53.316;8.670;2023-04-05T13:39:30;10.10;38.40
46816;DHT22;32787;53.316;8.670;2023-04-05T13:41:56;9.80;39.20
46816;DHT22;32787;53.316;8.670;2023-04-05T13:44:22;9.90;40.40
46816;DHT22;32787;53.316;8.670;2023-04-05T13:46:48;9.60;41.10
46816;DHT22;32787;53.316;8.670;2023-04-05T13:49:14;9.50;40.30
46816;DHT22;32787;53.316;8.670;2023-04-05T13:51:39;9.60;40.40
46816;DHT22;32787;53.316;8.670;2023-04-05T13:54:09;9.80;42.20
46816;DHT22;32787;53.316;8.670;2023-04-05T13:56:39;9.60;41.40
46816;DHT22;32787;53.316;8.670;2023-04-05T13:59:05;9.70;42.00
46816;DHT22;32787;53.316;8.670;2023-04-05T14:01:32;9.70;40.30
46816;DHT22;32787;53.316;8.670;2023-04-05T14:03:58;9.70;42.00
46816;DHT22;32787;53.316;8.670;2023-04-05T14:06:23;10.10;41.10
46816;DHT22;32787;53.316;8.670;2023-04-05T14:08:49;10.10;39.90
46816;DHT22;32787;53.316;8.670;2023-04-05T14:11:22;9.90;41.70
46816;DHT22;32787;53.316;8.670;2023-04-05T14:13:49;9.80;42.00
46816;DHT22;32787;53.316;8.670;2023-04-05T14:16:15;9.80;42.90
46816;DHT22;32787;53.316;8.670;2023-04-05T14:18:41;9.90;43.00
46816;DHT22;32787;53.316;8.670;2023-04-05T14:21:07;9.80;42.50
46816;DHT22;32787;53.316;8.670;2023-04-05T14:23:32;9.80;40.90
46816;DHT22;32787;53.316;8.670;2023-04-05T14:25:58;10.00;42.50
46816;DHT22;32787;53.316;8.670;2023-04-05T14:28:24;10.10;40.80
46816;DHT22;32787;53.316;8.670;2023-04-05T14:30:49;10.20;41.60
46816;DHT22;32787;53.316;8.670;2023-04-05T14:33:15;10.00;40.20
46816;DHT22;32787;53.316;8.670;2023-04-05T14:35:42;9.80;40.80
46816;DHT22;32787;53.316;8.670;2023-04-05T14:38:07;9.90;40.20
46816;DHT22;32787;53.316;8.670;2023-04-05T14:40:33;9.80;42.20
46816;DHT22;32787;53.316;8.670;2023-04-05T14:42:59;9.80;40.90
46816;DHT22;32787;53.316;8.670;2023-04-05T14:45:24;9.90;41.50
46816;DHT22;32787;53.316;8.670;2023-04-05T14:47:53;10.10;42.20
46816;DHT22;32787;53.316;8.670;2023-04-05T14:50:20;10.20;41.20
46816;DHT22;32787;53.316;8.670;2023-04-05T14:52:46;10.10;40.10
46816;DHT22;32787;53.316;8.670;2023-04-05T14:55:11;9.90;39.40
46816;DHT22;32787;53.316;8.670;2023-04-05T14:57:41;9.90;41.70
46816;DHT22;32787;53.316;8.670;2023-04-05T15:00:08;9.90;41.30
46816;DHT22;32787;53.316;8.670;2023-04-05T15:02:38;9.80;41.30
46816;DHT22;32787;53.316;8.670;2023-04-05T15:05:04;9.70;43.10
46816;DHT22;32787;53.316;8.670;2023-04-05T15:07:30;9.40;42.00
46816;DHT22;32787;53.316;8.670;2023-04-05T15:09:56;9.30;41.60
46816;DHT22;32787;53.316;8.670;2023-04-05T15:12:22;9.50;40.70
46816;DHT22;32787;53.316;8.670;2023-04-05T15:14:48;9.80;40.30
46816;DHT22;32787;53.316;8.670;2023-04-05T15:17:15;9.80;39.60
46816;DHT22;32787;53.316;8.670;2023-04-05T15:19:41;9.80;40.60
46816;DHT22;32787;53.316;8.670;2023-04-05T15:22:07;9.90;40.80
46816;DHT22;32787;53.316;8.670;2023-04-05T15:24:33;10.40;41.00
46816;DHT22;32787;53.316;8.670;2023-04-05T15:26:58;10.80;41.30
46816;DHT22;32787;53.316;8.670;2023-04-05T15:29:28;11.60;39.30
46816;DHT22;32787;53.316;8.670;2023-04-05T15:31:53;12.70;38.00
46816;DHT22;32787;53.316;8.670;2023-04-05T15:34:19;13.10;41.30
46816;DHT22;32787;53.316;8.670;2023-04-05T15:36:45;12.80;42.40
46816;DHT22;32787;53.316;8.670;2023-04-05T15:39:11;12.50;43.60
46816;DHT22;32787;53.316;8.670;2023-04-05T15:41:36;12.40;44.90
46816;DHT22;32787;53.316;8.670;2023-04-05T15:44:02;11.90;43.60
46816;DHT22;32787;53.316;8.670;2023-04-05T15:46:28;10.70;44.80
46816;DHT22;32787;53.316;8.670;2023-04-05T15:48:54;11.10;45.60
46816;DHT22;32787;53.316;8.670;2023-04-05T15:51:20;11.70;44.30
46816;DHT22;32787;53.316;8.670;2023-04-05T15:53:46;12.60;42.20
46816;DHT22;32787;53.316;8.670;2023-04-05T15:56:11;13.20;41.00
46816;DHT22;32787;53.316;8.670;2023-04-05T15:58:37;13.30;39.60